Time;durP1;ratioP1;P1;durP2;ratioP2;P2;SDS_P1;SDS_P2;PMS_P1;PMS_P2;Temp;Humidity;BMP_temperature;BMP_pressure;BME280_temperature;BME280_humidity;BME280_pressure;Samples;Min_cycle;Max_cycle;Signal;HPM_P1;HPM_P2
2021/08/21 00:04:57;;;;;;;1999.90;999.90;;;;;;;18.56;77.76;101414.34;15609881;28;20649;-62
2021/08/21 00:12:29;;;;;;;1999.90;999.90;;;;;;;18.51;78.12;101406.97;15627173;28;20503;-62
2021/08/21 00:20:08;;;;;;;1999.90;999.90;;;;;;;18.65;77.29;101403.66;15626738;28;20045;-63
2021/08/21 00:27:46;;;;;;;1999.90;999.90;;;;;;;18.58;77.72;101409.13;15608306;28;20041;-63
2021/08/21 00:35:48;;;;;;;1999.90;999.90;;;;;;;18.62;77.08;101419.31;15592047;28;20055;-62
2021/08/21 00:44:04;;;;;;;1999.90;999.90;;;;;;;18.53;76.83;101415.88;15584737;28;20514;-63
2021/08/21 00:52:00;;;;;;;1999.90;999.90;;;;;;;18.45;78.20;101416.94;15594869;28;20092;-63
2021/08/21 00:59:45;;;;;;;1999.90;999.90;;;;;;;18.58;77.92;101420.44;15610153;28;20157;-62
2021/08/21 01:07:27;;;;;;;1999.90;999.90;;;;;;;18.63;77.19;101415.28;15625389;28;20041;-62
2021/08/21 01:15:23;;;;;;;1999.90;999.90;;;;;;;18.57;77.39;101413.97;15591934;28;20054;-62
2021/08/21 01:23:23;;;;;;;1999.90;999.90;;;;;;;18.51;77.76;101411.78;15621324;28;20533;-61
2021/08/21 01:31:11;;;;;;;1999.90;999.90;;;;;;;18.46;77.85;101416.56;15616249;28;20063;-61
2021/08/21 01:38:55;;;;;;;1999.90;999.90;;;;;;;18.48;78.05;101413.38;15604361;28;20037;-62
2021/08/21 01:46:50;;;;;;;1999.90;999.90;;;;;;;18.44;78.34;101402.00;15605027;28;20091;-62
2021/08/21 01:54:25;;;;;;;1999.90;999.90;;;;;;;18.56;77.72;101403.84;15603999;28;20053;-61
2021/08/21 02:02:20;;;;;;;1999.90;999.90;;;;;;;18.58;77.95;101412.78;15606062;28;20586;-62
2021/08/21 02:10:02;;;;;;;1999.90;999.90;;;;;;;18.48;78.12;101412.53;15603037;28;20041;-61
2021/08/21 02:17:36;;;;;;;1999.90;999.90;;;;;;;18.45;78.63;101416.94;15601947;28;20045;-63
2021/08/21 02:25:55;;;;;;;1999.90;999.90;;;;;;;18.44;77.95;101402.00;15598367;28;20052;-63
2021/08/21 02:33:39;;;;;;;1999.90;999.90;;;;;;;18.41;78.47;101408.38;15604766;28;20449;-63
2021/08/21 02:41:11;;;;;;;1999.90;999.90;;;;;;;18.28;78.29;101412.50;15590070;28;20316;-63
2021/08/21 02:48:47;;;;;;;1999.90;999.90;;;;;;;18.04;78.96;101412.75;15619482;28;20046;-62
2021/08/21 02:56:28;;;;;;;1999.90;999.90;;;;;;;18.24;77.79;101416.47;15621212;28;20561;-62
2021/08/21 03:04:11;;;;;;;1999.90;999.90;;;;;;;18.09;77.53;101410.47;15603018;28;20049;-62
2021/08/21 03:11:50;;;;;;;1999.90;999.90;;;;;;;17.98;77.38;101420.69;15600699;28;20064;-62
2021/08/21 03:19:38;;;;;;;1999.90;999.90;;;;;;;17.80;77.36;101423.06;15583068;28;20048;-62
2021/08/21 03:27:32;;;;;;;1999.90;999.90;;;;;;;17.68;77.67;101419.50;15597941;28;20099;-63
2021/08/21 03:35:16;;;;;;;1999.90;999.90;;;;;;;17.64;77.63;101421.41;15599168;28;20132;-62
2021/08/21 03:42:49;;;;;;;1999.90;999.90;;;;;;;17.60;77.23;101421.31;15598683;28;20103;-63
2021/08/21 03:50:23;;;;;;;1999.90;999.90;;;;;;;17.42;77.54;101423.69;15581132;28;20037;-62
2021/08/21 03:58:11;;;;;;;1999.90;999.90;;;;;;;17.24;77.41;101437.28;15598362;28;20076;-62
2021/08/21 04:05:53;;;;;;;1999.90;999.90;;;;;;;17.11;77.75;101434.91;15597217;28;20069;-62
2021/08/21 04:13:29;;;;;;;1999.90;999.90;;;;;;;17.19;76.97;101443.19;15581200;28;20084;-63
2021/08/21 04:21:05;;;;;;;1999.90;999.90;;;;;;;17.02;77.46;101454.81;15596993;28;20087;-63
2021/08/21 04:28:38;;;;;;;1999.90;999.90;;;;;;;16.99;77.77;101464.81;15597310;28;20045;-62
2021/08/21 04:36:15;;;;;;;1999.90;999.90;;;;;;;17.18;76.97;101466.09;15597022;28;20037;-63
2021/08/21 04:43:52;;;;;;;1999.90;999.90;;;;;;;17.26;77.61;101460.31;15590587;28;20050;-61
2021/08/21 04:51:29;;;;;;;1999.90;999.90;;;;;;;17.21;78.31;101465.41;15625004;28;20052;-63
2021/08/21 04:59:23;;;;;;;1999.90;999.90;;;;;;;17.30;78.29;101469.72;15606603;28;20046;-63
2021/08/21 05:07:05;;;;;;;1999.90;999.90;;;;;;;17.54;78.53;101473.56;15607487;28;20434;-62
2021/08/21 05:14:43;;;;;;;1999.90;999.90;;;;;;;17.71;77.76;101484.50;15605600;28;20064;-62
2021/08/21 05:22:25;;;;;;;1999.90;999.90;;;;;;;18.03;77.26;101481.69;15606179;28;20033;-63
2021/08/21 05:30:18;;;;;;;1999.90;999.90;;;;;;;18.41;76.77;101487.47;15607837;28;21092;-63
2021/08/21 05:37:52;;;;;;;1999.90;999.90;;;;;;;18.67;76.27;101491.75;15623403;28;20111;-62
2021/08/21 05:45:29;;;;;;;1999.90;999.90;;;;;;;18.78;76.09;101495.63;15622394;28;20145;-63
2021/08/21 05:53:40;;;;;;;1999.90;999.90;;;;;;;19.40;75.00;101496.50;15606025;28;20045;-63
2021/08/21 06:01:12;;;;;;;1999.90;999.90;;;;;;;19.31;75.42;101508.06;15621164;28;20125;-63
2021/08/21 06:09:12;;;;;;;1999.90;999.90;;;;;;;19.66;74.73;101518.47;15586512;28;20041;-62
2021/08/21 06:16:44;;;;;;;1999.90;999.90;;;;;;;19.98;74.55;101526.72;15602187;28;20041;-62
2021/08/21 06:24:18;;;;;;;1999.90;999.90;;;;;;;20.72;70.82;101536.44;15593240;28;20110;-62
2021/08/21 06:31:56;;;;;;;1999.90;999.90;;;;;;;21.02;69.92;101539.31;15604672;28;20045;-63
2021/08/21 06:39:33;;;;;;;1999.90;999.90;;;;;;;21.34;69.14;101530.41;15619660;28;20050;-63
2021/08/21 06:47:14;;;;;;;1999.90;999.90;;;;;;;21.71;69.22;101541.81;15617493;28;20084;-63
2021/08/21 06:55:20;;;;;;;1999.90;999.90;;;;;;;22.50;66.76;101539.69;15618877;28;20041;-63
2021/08/21 07:02:59;;;;;;;1999.90;999.90;;;;;;;22.79;65.41;101537.84;15583961;28;20050;-63
2021/08/21 07:10:45;;;;;;;1999.90;999.90;;;;;;;23.29;62.70;101545.47;15617941;28;20041;-63
2021/08/21 07:18:22;;;;;;;1999.90;999.90;;;;;;;23.27;61.66;101547.09;15599916;28;20049;-61
2021/08/21 07:26:07;;;;;;;1999.90;999.90;;;;;;;23.42;64.11;101539.41;15592701;28;20073;-64
2021/08/21 07:33:39;;;;;;;1999.90;999.90;;;;;;;23.59;59.84;101550.06;15538132;28;20422;-64
2021/08/21 07:41:19;;;;;;;1999.90;999.90;;;;;;;24.67;59.29;101549.75;15579179;28;20056;-62
2021/08/21 07:49:04;;;;;;;1999.90;999.90;;;;;;;24.45;58.54;101553.88;15603128;28;20037;-62
2021/08/21 07:56:41;;;;;;;1999.90;999.90;;;;;;;24.66;54.72;101564.44;15613780;28;20052;-62
2021/08/21 08:04:15;;;;;;;1999.90;999.90;;;;;;;24.96;54.98;101556.22;15613809;28;20049;-62
2021/08/21 08:12:01;;;;;;;1999.90;999.90;;;;;;;24.69;55.86;101560.75;15610566;28;20052;-61
2021/08/21 08:19:40;;;;;;;1999.90;999.90;;;;;;;25.24;54.15;101566.78;15616188;28;20056;-62
2021/08/21 08:27:24;;;;;;;1999.90;999.90;;;;;;;25.56;54.56;101572.34;15629274;28;20458;-62
2021/08/21 08:35:02;;;;;;;1999.90;999.90;;;;;;;25.69;53.55;101566.97;15629656;28;20054;-62
2021/08/21 08:42:39;;;;;;;1999.90;999.90;;;;;;;26.03;51.50;101574.94;15610508;28;20052;-62
2021/08/21 08:50:20;;;;;;;1999.90;999.90;;;;;;;25.69;55.18;101577.59;15625479;28;20038;-62
2021/08/21 08:58:09;;;;;;;1999.90;999.90;;;;;;;24.97;54.36;101577.03;15624453;28;20052;-63
2021/08/21 09:15:37;;;;;;;1999.90;999.90;;;;;;;25.83;51.27;101586.09;15619291;28;20064;-62
2021/08/21 09:23:24;;;;;;;1999.90;999.90;;;;;;;26.27;50.60;101585.41;15606323;28;20041;-63
2021/08/21 09:31:33;;;;;;;1999.90;999.90;;;;;;;26.26;50.69;101583.78;15625853;22;20054;-57
2021/08/21 09:39:41;;;;;;;1999.90;999.90;;;;;;;27.09;47.30;101583.84;15733308;28;20587;-57
2021/08/21 09:47:57;;;;;;;1999.90;999.90;;;;;;;26.50;52.92;101581.97;15740309;28;20396;-55
2021/08/21 09:55:48;;;;;;;1999.90;999.90;;;;;;;27.53;50.89;101575.16;15643913;28;20044;-55
2021/08/21 10:03:23;;;;;;;1999.90;999.90;;;;;;;28.45;46.83;101575.00;15678433;28;20037;-56
2021/08/21 10:11:37;;;;;;;1999.90;999.90;;;;;;;27.44;50.05;101569.13;15660676;28;20049;-57
2021/08/21 10:19:10;;;;;;;1999.90;999.90;;;;;;;28.11;47.82;101567.34;15678483;28;20041;-55
2021/08/21 10:27:00;;;;;;;1999.90;999.90;;;;;;;29.30;44.34;101570.56;15707038;28;20053;-57
2021/08/21 10:34:57;;;;;;;1999.90;999.90;;;;;;;27.78;47.15;101568.28;15739328;28;20102;-58
2021/08/21 10:50:56;;;;;;;;;;;;;;;;;;;;;
2021/08/21 10:58:54;;;;;;;1999.90;999.90;;;;;;;28.91;44.29;101561.94;15790436;28;20147;-56
2021/08/21 11:06:50;;;;;;;1999.90;999.90;;;;;;;30.42;43.49;101553.19;15790344;28;20102;-58
2021/08/21 11:14:38;;;;;;;1999.90;999.90;;;;;;;30.57;41.83;101561.47;15789555;28;20060;-58
2021/08/21 11:22:31;;;;;;;1999.90;999.90;;;;;;;29.68;43.32;101552.94;15789061;28;20059;-56
2021/08/21 11:30:29;;;;;;;1999.90;999.90;;;;;;;29.39;42.87;101540.41;15786736;28;20036;-57
2021/08/21 11:38:09;;;;;;;1999.90;999.90;;;;;;;30.69;39.46;101546.38;15786476;28;20519;-56
2021/08/21 11:45:42;;;;;;;1999.90;999.90;;;;;;;29.92;43.13;101538.44;15769159;28;20426;-56
2021/08/21 11:53:22;;;;;;;1999.90;999.90;;;;;;;30.98;43.75;101535.69;15785781;28;20064;-53
2021/08/21 12:00:55;;;;;;;1999.90;999.90;;;;;;;30.03;43.46;101531.16;15748223;28;20051;-58
2021/08/21 12:08:29;;;;;;;1999.90;999.90;;;;;;;28.43;45.10;101528.72;15741754;28;20033;-58
2021/08/21 12:16:08;;;;;;;1999.90;999.90;;;;;;;27.98;48.45;101519.63;15726337;28;20072;-58
2021/08/21 12:23:44;;;;;;;1999.90;999.90;;;;;;;27.18;49.07;101526.88;15737915;28;20389;-55
2021/08/21 12:31:17;;;;;;;1999.90;999.90;;;;;;;27.70;48.28;101538.88;15662883;28;20497;-56
2021/08/21 12:39:03;;;;;;;1999.90;999.90;;;;;;;31.44;41.19;101524.06;15679710;28;20301;-57
2021/08/21 12:46:50;;;;;;;1999.90;999.90;;;;;;;32.38;37.69;101530.09;15734162;28;20501;-58
2021/08/21 12:54:29;;;;;;;1999.90;999.90;;;;;;;35.33;33.49;101531.00;15740129;28;20471;-58
2021/08/21 13:02:06;;;;;;;1999.90;999.90;;;;;;;36.03;30.25;101523.06;15736364;28;20127;-59
2021/08/21 13:09:40;;;;;;;1999.90;999.90;;;;;;;30.35;41.16;101515.16;15701465;28;20041;-58
2021/08/21 13:17:13;;;;;;;1999.90;999.90;;;;;;;29.05;43.22;101495.56;15737966;28;20064;-54
2021/08/21 13:24:46;;;;;;;1999.90;999.90;;;;;;;28.37;45.19;101501.78;15711517;28;20629;-58
2021/08/21 13:32:19;;;;;;;1999.90;999.90;;;;;;;30.22;41.45;101492.03;15736648;28;20044;-58
2021/08/21 13:39:53;;;;;;;1999.90;999.90;;;;;;;31.53;39.13;101483.81;15735351;28;20120;-60
2021/08/21 13:47:26;;;;;;;1999.90;999.90;;;;;;;30.22;40.93;101468.22;15735015;28;20179;-59
2021/08/21 13:55:00;;;;;;;1999.90;999.90;;;;;;;30.18;41.96;101469.13;15736376;28;20044;-58
2021/08/21 14:02:32;;;;;;;1999.90;999.90;;;;;;;29.66;42.18;101469.16;15685642;28;20057;-59
2021/08/21 14:10:06;;;;;;;1999.90;999.90;;;;;;;29.13;41.74;101453.13;15672045;28;20056;-58
2021/08/21 14:17:42;;;;;;;1999.90;999.90;;;;;;;28.98;43.50;101450.56;15669158;28;20113;-57
2021/08/21 14:25:15;;;;;;;1999.90;999.90;;;;;;;28.50;43.42;101441.69;15688785;28;20072;-55
2021/08/21 14:32:47;;;;;;;1999.90;999.90;;;;;;;28.43;44.66;101452.03;15732655;28;20119;-58
2021/08/21 14:40:21;;;;;;;1999.90;999.90;;;;;;;28.29;44.99;101443.69;15730731;28;20041;-58
2021/08/21 14:47:54;;;;;;;1999.90;999.90;;;;;;;28.37;45.24;101433.72;15735145;28;20059;-57
2021/08/21 14:55:28;;;;;;;1999.90;999.90;;;;;;;28.34;44.58;101440.31;15736262;28;20113;-57
2021/08/21 15:03:07;;;;;;;1999.90;999.90;;;;;;;27.78;45.10;101428.59;15733343;28;20052;-56
2021/08/21 15:10:41;;;;;;;1999.90;999.90;;;;;;;28.18;45.65;101429.53;15672320;28;20072;-57
2021/08/21 15:18:15;;;;;;;1999.90;999.90;;;;;;;28.15;44.07;101423.84;15683140;28;20048;-58
2021/08/21 15:25:48;;;;;;;1999.90;999.90;;;;;;;27.57;45.56;101418.25;15704286;28;20039;-58
2021/08/21 15:33:22;;;;;;;1999.90;999.90;;;;;;;26.97;45.49;101422.75;15675030;23;20466;-60
2021/08/21 15:40:55;;;;;;;1999.90;999.90;;;;;;;27.33;46.39;101416.59;15567510;28;20195;-61
2021/08/21 15:48:28;;;;;;;1999.90;999.90;;;;;;;27.05;44.95;101406.34;15621510;28;20045;-60
2021/08/21 15:56:01;;;;;;;1999.90;999.90;;;;;;;26.86;46.27;101398.38;15606947;28;20469;-61
2021/08/21 16:03:39;;;;;;;1999.90;999.90;;;;;;;27.10;47.57;101402.19;15622796;28;20402;-64
2021/08/21 16:11:13;;;;;;;1999.90;999.90;;;;;;;26.72;48.90;101396.53;15607221;28;20106;-62
2021/08/21 16:19:22;;;;;;;1999.90;999.90;;;;;;;26.87;47.96;101397.94;15624990;28;20052;-63
2021/08/21 16:26:56;;;;;;;1999.90;999.90;;;;;;;26.84;48.48;101384.50;15630132;28;20052;-61
2021/08/21 16:34:28;;;;;;;1999.90;999.90;;;;;;;27.01;48.35;101379.78;15624457;28;20046;-61
2021/08/21 16:42:02;;;;;;;;;;;;;;;26.60;47.24;101374.19;15609424;28;20050;-63
2021/08/21 16:49:34;;;;;;;1999.90;999.90;;;;;;;26.08;49.72;101380.88;15602059;28;19921;-63
2021/08/21 16:57:09;;;;;;;;;;;;;;;25.87;49.90;101372.50;15620559;28;20045;-63
2021/08/21 17:04:43;;;;;;;1999.90;999.90;;;;;;;25.83;50.42;101358.22;15619860;28;20023;-64
2021/08/21 17:12:17;;;;;;;1999.90;999.90;;;;;;;25.53;51.25;101363.75;15614345;28;20125;-64
2021/08/21 17:19:49;;;;;;;1999.90;999.90;;;;;;;25.29;51.76;101368.44;15621453;28;20049;-63
2021/08/21 17:27:57;;;;;;;1999.90;999.90;;;;;;;24.93;52.32;101362.94;15601522;28;20072;-62
2021/08/21 17:35:30;;;;;;;1999.90;999.90;;;;;;;24.69;52.89;101366.72;15599119;28;20046;-61
2021/08/21 17:43:04;;;;;;;1999.90;999.90;;;;;;;24.39;54.04;101370.13;15615563;28;20037;-61
2021/08/21 17:50:36;;;;;;;1999.90;999.90;;;;;;;24.30;53.81;101378.25;15595919;28;20045;-60
2021/08/21 17:58:10;;;;;;;1999.90;999.90;;;;;;;24.42;54.77;101381.50;15605234;28;20041;-62
2021/08/21 18:05:45;;;;;;;1999.90;999.90;;;;;;;24.21;55.81;101387.22;15612022;28;20037;-63
2021/08/21 18:13:19;;;;;;;1999.90;999.90;;;;;;;23.90;56.32;101395.41;15607773;28;20107;-63
2021/08/21 18:20:51;;;;;;;1999.90;999.90;;;;;;;23.73;56.97;101395.41;15606883;28;20092;-62
2021/08/21 18:28:25;;;;;;;1999.90;999.90;;;;;;;23.44;57.54;101400.25;15582346;28;20053;-62
2021/08/21 18:35:57;;;;;;;1999.90;999.90;;;;;;;23.38;58.00;101397.00;15604789;28;20465;-61
2021/08/21 18:43:31;;;;;;;1999.90;999.90;;;;;;;23.16;57.80;101412.44;15586217;28;20053;-61
2021/08/21 18:51:04;;;;;;;1999.90;999.90;;;;;;;23.09;58.62;101416.06;15605635;28;20601;-59
2021/08/21 18:58:38;;;;;;;1999.90;999.90;;;;;;;22.89;58.91;101411.91;15604297;28;20131;-59
2021/08/21 19:06:11;;;;;;;1999.90;999.90;;;;;;;22.81;58.66;101421.59;15606063;28;20111;-61
2021/08/21 19:13:45;;;;;;;;;;;;;;;22.78;58.97;101417.53;15616971;28;20045;-59
2021/08/21 19:21:17;;;;;;;1999.90;999.90;;;;;;;22.62;58.04;101403.66;15613110;28;19932;-62
2021/08/21 19:28:51;;;;;;;1999.90;999.90;;;;;;;22.58;58.96;101402.00;15609225;28;20050;-62
2021/08/21 19:36:24;;;;;;;1999.90;999.90;;;;;;;22.34;58.97;101406.34;15617369;28;20312;-62
2021/08/21 19:43:58;;;;;;;1999.90;999.90;;;;;;;22.38;58.23;101408.00;15630830;28;20044;-61
2021/08/21 19:51:30;;;;;;;1999.90;999.90;;;;;;;22.15;58.40;101408.25;15602053;28;20107;-61
2021/08/21 19:59:04;;;;;;;1999.90;999.90;;;;;;;22.02;57.67;101401.25;15597147;28;20068;-60
2021/08/21 20:06:36;;;;;;;1999.90;999.90;;;;;;;21.99;57.58;101402.03;15620124;28;20042;-61
2021/08/21 20:14:10;;;;;;;1999.90;999.90;;;;;;;21.95;58.02;101409.69;15617585;28;20060;-62
2021/08/21 20:21:42;;;;;;;1999.90;999.90;;;;;;;21.91;58.02;101408.88;15619772;28;20048;-61
2021/08/21 20:29:15;;;;;;;1999.90;999.90;;;;;;;21.79;57.79;101398.63;15621352;28;20049;-61
2021/08/21 20:36:48;;;;;;;1999.90;999.90;;;;;;;21.71;57.81;101396.94;15616665;28;20033;-62
2021/08/21 20:44:21;;;;;;;1999.90;999.90;;;;;;;21.42;58.28;101395.88;15617547;28;20045;-62
2021/08/21 20:51:54;;;;;;;1999.90;999.90;;;;;;;21.48;58.08;101400.00;15620574;28;20045;-62
2021/08/21 20:59:27;;;;;;;1999.90;999.90;;;;;;;21.52;57.98;101395.16;15621016;28;20541;-62
2021/08/21 21:06:59;;;;;;;1999.90;999.90;;;;;;;21.29;58.37;101401.03;15619462;28;20111;-60
2021/08/21 21:14:33;;;;;;;1999.90;999.90;;;;;;;21.29;59.02;101392.50;15621810;28;20067;-62
2021/08/21 21:22:08;;;;;;;1999.90;999.90;;;;;;;21.20;58.79;101391.97;15606281;28;20111;-59
2021/08/21 21:29:42;;;;;;;1999.90;999.90;;;;;;;21.23;59.84;101379.81;15563104;28;20076;-61
2021/08/21 21:37:15;;;;;;;1999.90;999.90;;;;;;;21.14;59.37;101389.84;15601089;28;20409;-61
2021/08/21 21:44:49;;;;;;;1999.90;999.90;;;;;;;21.18;59.28;101388.72;15609910;28;20057;-61
2021/08/21 21:52:21;;;;;;;1999.90;999.90;;;;;;;21.22;59.32;101391.56;15608207;28;20057;-62
2021/08/21 21:59:55;;;;;;;1999.90;999.90;;;;;;;21.15;59.57;101385.81;15608521;28;20049;-61
2021/08/21 22:07:27;;;;;;;1999.90;999.90;;;;;;;21.03;59.59;101378.41;15613579;28;20410;-60
2021/08/21 22:15:01;;;;;;;1999.90;999.90;;;;;;;20.92;59.82;101383.13;15592133;28;20057;-59
2021/08/21 22:22:33;;;;;;;1999.90;999.90;;;;;;;20.81;59.98;101385.03;15610466;28;20049;-62
2021/08/21 22:30:08;;;;;;;1999.90;999.90;;;;;;;20.73;60.76;101379.28;15599178;28;20437;-62
2021/08/21 22:37:40;;;;;;;1999.90;999.90;;;;;;;20.53;60.45;101365.63;15615318;28;20100;-59
2021/08/21 22:45:14;;;;;;;1999.90;999.90;;;;;;;20.42;60.95;101373.97;15616003;28;20041;-59
2021/08/21 22:52:46;;;;;;;1999.90;999.90;;;;;;;20.32;61.36;101374.66;15614988;28;20050;-59
2021/08/21 23:00:20;;;;;;;1999.90;999.90;;;;;;;20.23;61.78;101359.97;15616006;28;20046;-61
2021/08/21 23:07:52;;;;;;;1999.90;999.90;;;;;;;20.10;61.73;101356.53;15616159;28;20099;-60
2021/08/21 23:15:26;;;;;;;1999.90;999.90;;;;;;;20.08;61.78;101350.44;15615937;28;20052;-58
2021/08/21 23:23:00;;;;;;;1999.90;999.90;;;;;;;19.98;62.09;101349.06;15600790;28;20087;-60
2021/08/21 23:30:34;;;;;;;1999.90;999.90;;;;;;;20.02;62.05;101335.00;15590632;28;20120;-59
2021/08/21 23:38:08;;;;;;;1999.90;999.90;;;;;;;20.00;61.87;101331.69;15604672;28;20033;-61
2021/08/21 23:45:43;;;;;;;1999.90;999.90;;;;;;;20.21;61.60;101328.34;15591707;28;20080;-60
2021/08/21 23:53:15;;;;;;;1999.90;999.90;;;;;;;19.84;62.39;101320.56;15617343;28;20050;-61
